createdAt,value
2023-02-18T00:00:11.471Z,0.70
2023-02-18T00:02:39.108Z,0.93
2023-02-18T00:05:08.504Z,0.70
2023-02-18T00:07:36.626Z,0.60
2023-02-18T00:10:04.932Z,0.60
2023-02-18T00:12:33.062Z,0.60
2023-02-18T00:15:00.783Z,0.70
2023-02-18T00:17:29.922Z,0.70
2023-02-18T00:19:58.097Z,0.90
2023-02-18T00:22:26.980Z,0.67
2023-02-18T00:24:54.689Z,0.60
2023-02-18T00:27:22.312Z,0.60
2023-02-18T00:29:50.000Z,0.53
2023-02-18T00:32:17.554Z,0.50
2023-02-18T00:34:45.325Z,0.60
2023-02-18T00:37:12.869Z,0.60
2023-02-18T00:39:41.788Z,0.57
2023-02-18T00:42:09.388Z,0.60
2023-02-18T00:44:36.900Z,0.60
2023-02-18T00:47:04.604Z,0.90
2023-02-18T00:49:32.219Z,1.27
2023-02-18T00:51:59.774Z,0.60
2023-02-18T00:54:27.372Z,0.60
2023-02-18T00:56:56.273Z,0.87
2023-02-18T00:59:23.804Z,0.60
2023-02-18T01:01:51.393Z,0.67
2023-02-18T01:04:19.230Z,0.77
2023-02-18T01:06:46.882Z,0.73
2023-02-18T01:09:14.437Z,0.77
2023-02-18T01:11:41.998Z,0.60
2023-02-18T01:14:10.908Z,1.00
2023-02-18T01:16:38.508Z,0.60
2023-02-18T01:19:06.018Z,1.13
2023-02-18T01:21:33.630Z,0.67
2023-02-18T01:24:01.165Z,0.70
2023-02-18T01:26:28.799Z,0.60
2023-02-18T01:28:56.316Z,0.67
2023-02-18T01:31:25.372Z,0.70
2023-02-18T01:33:52.962Z,0.50
2023-02-18T01:36:20.493Z,0.40
2023-02-18T01:38:48.026Z,0.70
2023-02-18T01:41:15.610Z,0.60
2023-02-18T01:43:43.186Z,0.57
2023-02-18T01:46:16.699Z,0.60
2023-02-18T01:48:49.635Z,0.50
2023-02-18T01:51:20.254Z,0.53
2023-02-18T01:53:53.877Z,0.57
2023-02-18T01:56:25.781Z,0.50
2023-02-18T01:58:56.458Z,0.50
2023-02-18T02:01:24.939Z,0.50
2023-02-18T02:03:53.868Z,0.63
2023-02-18T02:06:23.622Z,0.60
2023-02-18T02:08:54.936Z,0.57
2023-02-18T02:11:34.052Z,0.43
2023-02-18T02:14:21.096Z,0.70
2023-02-18T02:16:58.836Z,0.40
2023-02-18T02:20:02.080Z,1.17
2023-02-18T02:23:04.438Z,0.30
2023-02-18T02:25:52.451Z,0.50
2023-02-18T02:29:01.693Z,0.60
2023-02-18T02:31:59.208Z,0.40
2023-02-18T02:34:42.620Z,0.70
2023-02-18T02:37:16.590Z,0.50
2023-02-18T02:39:56.391Z,0.60
2023-02-18T02:42:35.952Z,0.43
2023-02-18T02:45:11.202Z,0.60
2023-02-18T02:47:46.732Z,0.63
2023-02-18T02:50:21.315Z,0.50
2023-02-18T02:52:52.976Z,0.77
2023-02-18T02:55:20.600Z,0.67
2023-02-18T02:57:51.826Z,0.43
2023-02-18T03:00:22.358Z,0.50
2023-02-18T03:03:20.630Z,0.50
2023-02-18T03:06:07.179Z,0.20
2023-02-18T03:08:47.205Z,0.40
2023-02-18T03:11:16.771Z,0.57
2023-02-18T03:13:57.144Z,0.40
2023-02-18T03:16:28.965Z,0.90
2023-02-18T03:19:06.358Z,0.67
2023-02-18T03:21:41.140Z,0.40
2023-02-18T03:24:14.565Z,0.40
2023-02-18T03:26:47.987Z,0.40
2023-02-18T03:29:18.471Z,0.40
2023-02-18T03:31:50.300Z,0.40
2023-02-18T03:34:23.411Z,0.43
2023-02-18T03:36:53.452Z,0.43
2023-02-18T03:39:24.758Z,0.47
2023-02-18T03:41:52.417Z,0.43
2023-02-18T03:44:19.958Z,0.77
2023-02-18T03:46:47.938Z,0.30
2023-02-18T03:49:16.637Z,0.30
2023-02-18T03:51:44.995Z,0.40
2023-02-18T03:54:14.547Z,0.30
2023-02-18T03:56:42.707Z,0.57
2023-02-18T03:59:10.558Z,0.20
2023-02-18T04:01:38.189Z,0.20
2023-02-18T04:04:06.355Z,0.20
2023-02-18T04:06:34.372Z,0.73
2023-02-18T04:09:02.554Z,0.90
2023-02-18T04:11:31.453Z,0.40
2023-02-18T04:13:58.984Z,0.57
2023-02-18T04:16:26.533Z,0.10
2023-02-18T04:18:54.252Z,0.47
2023-02-18T04:21:21.855Z,0.30
2023-02-18T04:23:49.490Z,0.30
2023-02-18T04:26:17.079Z,0.13
2023-02-18T04:28:45.991Z,0.40
2023-02-18T04:31:13.602Z,0.63
2023-02-18T04:33:41.384Z,0.30
2023-02-18T04:36:09.933Z,0.30
2023-02-18T04:38:37.784Z,0.20
2023-02-18T04:41:05.729Z,0.10
2023-02-18T04:43:33.370Z,0.40
2023-02-18T04:46:02.453Z,0.40
2023-02-18T04:48:30.042Z,1.03
2023-02-18T04:50:57.659Z,0.30
2023-02-18T04:53:25.188Z,0.40
2023-02-18T04:55:53.672Z,0.80
2023-02-18T04:58:21.941Z,0.60
2023-02-18T05:00:49.501Z,0.70
2023-02-18T05:03:18.696Z,0.50
2023-02-18T05:05:46.824Z,0.43
2023-02-18T05:08:16.218Z,0.60
2023-02-18T05:10:43.810Z,1.13
2023-02-18T05:13:11.512Z,0.53
2023-02-18T05:15:39.217Z,0.80
2023-02-18T05:18:07.195Z,1.00
2023-02-18T05:20:36.852Z,1.80
2023-02-18T05:23:04.372Z,0.70
2023-02-18T05:25:32.135Z,0.50
2023-02-18T05:27:59.673Z,1.33
2023-02-18T05:30:27.308Z,1.37
2023-02-18T05:32:54.898Z,0.60
2023-02-18T05:35:22.475Z,0.93
2023-02-18T05:37:51.356Z,0.93
2023-02-18T05:40:19.128Z,0.97
2023-02-18T05:42:46.676Z,0.80
2023-02-18T05:45:14.270Z,0.80
2023-02-18T05:47:41.779Z,1.43
2023-02-18T05:50:09.855Z,1.23
2023-02-18T05:52:37.427Z,0.90
2023-02-18T05:55:07.297Z,0.83
2023-02-18T05:57:34.826Z,1.00
2023-02-18T06:00:02.405Z,1.43
2023-02-18T06:02:29.928Z,0.87
2023-02-18T06:04:57.473Z,0.90
2023-02-18T06:07:25.057Z,1.27
2023-02-18T06:09:52.634Z,1.20
2023-02-18T06:12:21.546Z,1.20
2023-02-18T06:14:49.072Z,1.30
2023-02-18T06:17:18.694Z,1.40
2023-02-18T06:19:47.013Z,1.40
2023-02-18T06:22:14.627Z,1.60
2023-02-18T06:24:42.258Z,2.17
2023-02-18T06:27:09.821Z,1.40
2023-02-18T06:29:38.758Z,1.50
2023-02-18T06:32:06.776Z,1.40
2023-02-18T06:34:34.453Z,1.80
2023-02-18T06:37:01.982Z,1.63
2023-02-18T06:39:30.011Z,1.40
2023-02-18T06:41:57.583Z,3.33
2023-02-18T06:44:25.104Z,1.53
2023-02-18T06:46:54.137Z,1.20
2023-02-18T06:49:21.802Z,1.40
2023-02-18T06:51:49.340Z,1.17
2023-02-18T06:54:16.885Z,1.13
2023-02-18T06:56:44.411Z,1.00
2023-02-18T06:59:12.626Z,1.67
2023-02-18T07:01:40.200Z,1.30
2023-02-18T07:04:09.209Z,0.90
2023-02-18T07:06:36.888Z,2.03
2023-02-18T07:09:05.990Z,1.10
2023-02-18T07:11:33.660Z,1.00
2023-02-18T07:14:01.229Z,1.57
2023-02-18T07:16:28.794Z,1.00
2023-02-18T07:18:56.354Z,0.90
2023-02-18T07:21:25.242Z,1.73
2023-02-18T07:23:52.818Z,0.90
2023-02-18T07:26:21.553Z,1.03
2023-02-18T07:28:49.165Z,0.97
2023-02-18T07:31:17.623Z,0.80
2023-02-18T07:33:45.399Z,1.83
2023-02-18T07:36:12.923Z,0.90
2023-02-18T07:38:42.929Z,0.90
2023-02-18T07:41:22.350Z,1.10
2023-02-18T07:43:50.244Z,0.70
2023-02-18T07:46:18.045Z,1.10
2023-02-18T07:48:45.571Z,0.70
2023-02-18T07:51:14.308Z,0.60
2023-02-18T07:53:44.378Z,1.27
2023-02-18T07:56:12.209Z,0.70
2023-02-18T07:58:40.717Z,1.00
2023-02-18T08:01:10.528Z,0.83
2023-02-18T08:03:38.519Z,1.00
2023-02-18T08:06:07.261Z,1.00
2023-02-18T08:08:37.203Z,1.17
2023-02-18T08:11:18.607Z,0.87
2023-02-18T08:13:47.461Z,1.20
2023-02-18T08:16:15.241Z,0.90
2023-02-18T08:18:43.087Z,1.50
2023-02-18T08:21:10.645Z,1.10
2023-02-18T08:23:38.252Z,1.20
2023-02-18T08:26:07.817Z,1.93
2023-02-18T08:28:35.655Z,1.20
2023-02-18T08:31:03.546Z,1.33
2023-02-18T08:33:31.616Z,0.97
2023-02-18T08:35:59.192Z,1.40
2023-02-18T08:38:26.919Z,1.67
2023-02-18T08:41:03.786Z,1.33
2023-02-18T08:43:32.822Z,1.50
2023-02-18T08:46:01.040Z,1.07
2023-02-18T08:48:29.818Z,1.20
2023-02-18T08:50:57.791Z,1.10
2023-02-18T08:53:25.612Z,0.87
2023-02-18T08:55:53.208Z,1.33
2023-02-18T08:58:20.841Z,0.90
2023-02-18T09:00:49.811Z,1.37
2023-02-18T09:03:17.386Z,1.13
2023-02-18T09:05:45.014Z,0.90
2023-02-18T09:08:12.589Z,1.63
2023-02-18T09:10:40.406Z,0.90
2023-02-18T09:13:07.989Z,1.00
2023-02-18T09:15:35.606Z,0.77
2023-02-18T09:18:04.612Z,0.83
2023-02-18T09:20:32.151Z,0.70
2023-02-18T09:23:00.789Z,0.70
2023-02-18T09:25:28.506Z,0.83
2023-02-18T09:27:56.038Z,1.57
2023-02-18T09:30:23.822Z,0.50
2023-02-18T09:32:51.382Z,0.63
2023-02-18T09:35:20.656Z,0.70
2023-02-18T09:37:48.230Z,1.13
2023-02-18T09:40:27.190Z,0.77
2023-02-18T09:42:56.844Z,0.60
2023-02-18T09:45:24.764Z,0.50
2023-02-18T09:47:54.403Z,0.50
2023-02-18T09:50:27.269Z,0.50
2023-02-18T09:52:55.228Z,1.07
2023-02-18T09:55:26.107Z,0.43
2023-02-18T09:57:57.012Z,0.47
2023-02-18T10:00:30.424Z,0.40
2023-02-18T10:03:00.038Z,1.00
2023-02-18T10:05:32.046Z,0.50
2023-02-18T10:08:03.205Z,0.53
2023-02-18T10:10:38.538Z,0.80
2023-02-18T10:13:12.236Z,0.30
2023-02-18T10:15:40.149Z,0.67
2023-02-18T10:18:20.573Z,0.43
2023-02-18T10:20:51.899Z,0.90
2023-02-18T10:23:21.160Z,0.60
2023-02-18T10:25:50.261Z,0.63
2023-02-18T10:28:20.809Z,0.70
2023-02-18T10:30:56.928Z,0.70
2023-02-18T10:33:34.720Z,0.70
2023-02-18T10:36:17.733Z,0.57
2023-02-18T10:39:04.429Z,0.60
2023-02-18T10:41:39.480Z,0.60
2023-02-18T10:44:15.032Z,0.53
2023-02-18T10:46:51.738Z,0.50
2023-02-18T10:49:40.105Z,0.50
2023-02-18T10:52:17.055Z,0.87
2023-02-18T10:54:58.726Z,0.60
2023-02-18T10:57:26.852Z,0.50
2023-02-18T11:00:01.151Z,0.47
2023-02-18T11:02:32.683Z,0.40
2023-02-18T11:05:06.490Z,0.43
2023-02-18T11:07:38.847Z,1.13
2023-02-18T11:10:16.391Z,0.57
2023-02-18T11:12:47.294Z,0.50
2023-02-18T11:15:21.678Z,0.50
2023-02-18T11:17:51.230Z,0.50
2023-02-18T11:20:26.149Z,0.60
2023-02-18T11:22:58.944Z,0.47
2023-02-18T11:25:28.598Z,0.73
2023-02-18T11:27:58.417Z,0.30
2023-02-18T11:30:33.097Z,0.40
2023-02-18T11:33:04.755Z,0.33
2023-02-18T11:35:34.015Z,0.30
2023-02-18T11:38:05.052Z,0.50
2023-02-18T11:40:35.360Z,0.83
2023-02-18T11:43:08.449Z,0.60
2023-02-18T11:45:36.427Z,0.47
2023-02-18T11:48:09.322Z,1.87
2023-02-18T11:50:37.024Z,1.03
2023-02-18T11:53:28.200Z,1.07
2023-02-18T11:55:57.797Z,0.90
2023-02-18T11:58:25.943Z,0.50
2023-02-18T12:00:57.842Z,0.40
2023-02-18T12:03:34.779Z,1.87
2023-02-18T12:06:06.074Z,0.70
2023-02-18T12:08:44.649Z,0.70
2023-02-18T12:11:20.892Z,0.60
2023-02-18T12:13:54.391Z,0.80
2023-02-18T12:16:30.795Z,1.23
2023-02-18T12:19:13.846Z,1.10
2023-02-18T12:21:53.683Z,1.83
2023-02-18T12:24:39.607Z,0.97
2023-02-18T12:27:14.363Z,1.60
2023-02-18T12:29:55.151Z,1.50
2023-02-18T12:32:36.926Z,0.97
2023-02-18T12:35:27.164Z,1.20
2023-02-18T12:38:11.549Z,2.17
2023-02-18T12:40:52.730Z,1.27
2023-02-18T12:43:31.878Z,1.83
2023-02-18T12:46:20.591Z,1.50
2023-02-18T12:49:01.390Z,1.00
2023-02-18T12:51:43.598Z,2.00
2023-02-18T12:54:32.184Z,1.47
2023-02-18T12:57:22.974Z,1.33
2023-02-18T13:00:11.027Z,0.80
2023-02-18T13:02:57.780Z,1.43
2023-02-18T13:05:32.962Z,1.83
2023-02-18T13:08:14.487Z,1.23
2023-02-18T13:11:02.560Z,0.70
2023-02-18T13:13:35.872Z,1.37
2023-02-18T13:16:10.016Z,1.00
2023-02-18T13:18:41.693Z,0.90
2023-02-18T13:21:12.494Z,2.23
2023-02-18T13:23:54.057Z,1.17
2023-02-18T13:26:23.329Z,2.43
2023-02-18T13:29:01.138Z,0.80
2023-02-18T13:31:36.755Z,1.37
2023-02-18T13:34:13.815Z,0.70
2023-02-18T13:36:51.791Z,0.70
2023-02-18T13:39:22.253Z,1.63
2023-02-18T13:41:51.652Z,1.33
2023-02-18T13:45:15.836Z,1.10
2023-02-18T13:47:47.252Z,1.63
2023-02-18T13:50:25.672Z,2.00
2023-02-18T13:53:01.030Z,0.87
2023-02-18T13:55:37.865Z,0.97
2023-02-18T13:58:13.872Z,1.13
2023-02-18T14:00:47.574Z,0.93
2023-02-18T14:03:35.915Z,1.17
2023-02-18T14:06:15.276Z,1.17
2023-02-18T14:08:43.467Z,0.70
2023-02-18T14:11:35.047Z,1.13
2023-02-18T14:14:17.178Z,0.70
2023-02-18T14:17:32.800Z,1.37
2023-02-18T14:20:44.393Z,0.87
2023-02-18T14:23:51.351Z,0.57
2023-02-18T14:26:24.999Z,0.90
2023-02-18T14:28:58.729Z,1.30
2023-02-18T14:31:36.410Z,0.87
2023-02-18T14:34:40.128Z,1.57
2023-02-18T14:37:34.526Z,2.00
2023-02-18T14:40:17.594Z,1.00
2023-02-18T14:42:52.813Z,0.60
2023-02-18T14:45:32.594Z,0.50
2023-02-18T14:48:34.007Z,0.93
2023-02-18T14:51:01.642Z,0.30
2023-02-18T14:53:30.644Z,1.53
2023-02-18T14:56:03.217Z,0.50
2023-02-18T14:58:34.409Z,0.40
2023-02-18T15:01:07.937Z,0.80
2023-02-18T15:03:35.480Z,0.73
2023-02-18T15:06:03.081Z,0.83
2023-02-18T15:08:39.773Z,0.73
2023-02-18T15:11:09.148Z,1.00
2023-02-18T15:13:39.780Z,0.60
2023-02-18T15:16:10.927Z,1.10
2023-02-18T15:18:41.978Z,1.10
2023-02-18T15:21:17.511Z,0.80
2023-02-18T15:23:47.698Z,0.60
2023-02-18T15:26:17.009Z,0.73
2023-02-18T15:28:55.464Z,0.53
2023-02-18T15:31:27.137Z,0.60
2023-02-18T15:33:54.772Z,0.50
2023-02-18T15:36:22.537Z,0.60
2023-02-18T15:38:51.514Z,0.60
2023-02-18T15:41:22.696Z,0.70
2023-02-18T15:43:55.955Z,0.60
2023-02-18T15:46:26.304Z,0.90
2023-02-18T15:48:56.085Z,0.60
2023-02-18T15:51:27.746Z,1.13
2023-02-18T15:53:59.748Z,0.50
2023-02-18T15:56:32.326Z,0.60
2023-02-18T15:59:10.998Z,0.83
2023-02-18T16:01:38.686Z,0.73
2023-02-18T16:04:08.156Z,0.70
2023-02-18T16:06:39.057Z,0.40
2023-02-18T16:09:16.974Z,1.37
2023-02-18T16:11:47.498Z,0.87
2023-02-18T16:14:28.022Z,0.57
2023-02-18T16:17:14.953Z,1.23
2023-02-18T16:20:03.454Z,0.70
2023-02-18T16:22:36.251Z,1.27
2023-02-18T16:25:15.404Z,0.40
2023-02-18T16:27:50.497Z,0.40
2023-02-18T16:30:20.881Z,0.57
2023-02-18T16:32:49.132Z,0.50
2023-02-18T16:35:17.013Z,0.67
2023-02-18T16:37:46.348Z,0.90
2023-02-18T16:40:28.167Z,0.40
2023-02-18T16:42:57.092Z,0.70
2023-02-18T16:45:32.983Z,0.50
2023-02-18T16:48:01.204Z,0.50
2023-02-18T16:50:31.499Z,0.50
2023-02-18T16:52:59.535Z,1.33
2023-02-18T16:55:30.931Z,0.43
2023-02-18T16:57:58.604Z,1.07
2023-02-18T17:00:26.368Z,0.70
2023-02-18T17:02:57.098Z,0.73
2023-02-18T17:05:27.287Z,0.50
2023-02-18T17:07:55.117Z,0.40
2023-02-18T17:10:22.928Z,0.37
2023-02-18T17:12:51.857Z,0.83
2023-02-18T17:15:30.435Z,0.60
2023-02-18T17:17:59.251Z,0.30
2023-02-18T17:20:27.264Z,1.03
2023-02-18T17:22:55.858Z,0.73
2023-02-18T17:25:29.157Z,0.40
2023-02-18T17:27:58.301Z,0.63
2023-02-18T17:30:26.652Z,0.40
2023-02-18T17:32:54.442Z,0.80
2023-02-18T17:35:24.149Z,0.53
2023-02-18T17:37:51.707Z,1.57
2023-02-18T17:40:21.697Z,1.27
2023-02-18T17:42:49.389Z,0.30
2023-02-18T17:45:22.844Z,0.60
2023-02-18T17:47:50.397Z,0.47
2023-02-18T17:50:18.305Z,0.47
2023-02-18T17:52:46.347Z,0.53
2023-02-18T17:55:21.086Z,0.53
2023-02-18T17:57:49.898Z,0.40
2023-02-18T18:00:21.735Z,0.50
2023-02-18T18:02:49.399Z,0.50
2023-02-18T18:05:22.995Z,0.40
2023-02-18T18:07:51.934Z,0.77
2023-02-18T18:10:21.928Z,0.50
2023-02-18T18:12:50.200Z,0.40
2023-02-18T18:15:24.591Z,0.50
2023-02-18T18:17:52.288Z,0.60
2023-02-18T18:20:20.694Z,0.70
2023-02-18T18:22:48.751Z,0.70
2023-02-18T18:25:24.614Z,0.80
2023-02-18T18:27:53.704Z,0.70
2023-02-18T18:30:25.314Z,0.53
2023-02-18T18:32:53.172Z,0.40
2023-02-18T18:35:24.725Z,0.70
2023-02-18T18:37:52.802Z,0.60
2023-02-18T18:40:22.373Z,0.53
2023-02-18T18:42:49.991Z,0.70
2023-02-18T18:45:21.020Z,0.63
2023-02-18T18:47:50.338Z,1.10
2023-02-18T18:50:19.114Z,0.60
2023-02-18T18:52:47.341Z,0.60
2023-02-18T18:55:20.595Z,0.60
2023-02-18T18:57:48.371Z,0.50
2023-02-18T19:00:17.223Z,0.70
2023-02-18T19:02:44.756Z,0.57
2023-02-18T19:05:20.849Z,0.60
2023-02-18T19:07:48.406Z,0.70
2023-02-18T19:10:16.256Z,0.60
2023-02-18T19:12:44.037Z,1.13
2023-02-18T19:15:15.002Z,0.60
2023-02-18T19:17:47.266Z,0.80
2023-02-18T19:20:18.362Z,0.80
2023-02-18T19:22:46.016Z,1.30
2023-02-18T19:25:13.679Z,0.60
2023-02-18T19:27:42.696Z,1.10
2023-02-18T19:30:14.422Z,0.70
2023-02-18T19:32:42.098Z,0.97
2023-02-18T19:35:10.264Z,1.30
2023-02-18T19:37:39.207Z,0.80
2023-02-18T19:40:09.032Z,1.07
2023-02-18T19:42:36.576Z,0.80
2023-02-18T19:45:04.555Z,0.70
2023-02-18T19:47:32.238Z,0.70
2023-02-18T19:50:00.944Z,0.73
2023-02-18T19:52:28.826Z,1.00
2023-02-18T19:54:58.136Z,0.80
2023-02-18T19:57:26.048Z,0.60
2023-02-18T19:59:53.583Z,0.80
2023-02-18T20:02:23.384Z,1.77
2023-02-18T20:04:51.432Z,1.00
2023-02-18T20:07:20.905Z,1.00
2023-02-18T20:09:48.831Z,1.40
2023-02-18T20:12:17.731Z,1.30
2023-02-18T20:14:45.714Z,1.13
2023-02-18T20:17:13.320Z,1.10
2023-02-18T20:19:40.887Z,0.93
2023-02-18T20:22:10.251Z,1.10
2023-02-18T20:24:39.699Z,1.10
2023-02-18T20:27:08.226Z,1.07
2023-02-18T20:29:37.279Z,1.57
2023-02-18T20:32:06.412Z,1.10
2023-02-18T20:34:34.042Z,1.30
2023-02-18T20:37:02.161Z,1.30
2023-02-18T20:39:29.729Z,1.20
2023-02-18T20:42:00.934Z,1.57
2023-02-18T20:44:30.754Z,1.40
2023-02-18T20:46:59.648Z,2.20
2023-02-18T20:49:27.219Z,2.13
2023-02-18T20:51:54.806Z,1.50
2023-02-18T20:54:22.707Z,1.50
2023-02-18T20:56:51.298Z,1.50
2023-02-18T20:59:21.531Z,1.90
2023-02-18T21:01:49.502Z,1.83
2023-02-18T21:04:20.916Z,1.70
2023-02-18T21:06:50.459Z,2.47
2023-02-18T21:09:18.861Z,1.87
2023-02-18T21:11:46.832Z,1.90
2023-02-18T21:14:14.493Z,1.87
2023-02-18T21:16:42.058Z,1.90
2023-02-18T21:19:13.332Z,1.73
2023-02-18T21:21:43.173Z,1.87
2023-02-18T21:24:11.507Z,2.00
2023-02-18T21:26:39.764Z,1.80
2023-02-18T21:29:09.171Z,2.00
2023-02-18T21:31:39.538Z,1.70
2023-02-18T21:34:08.790Z,1.93
2023-02-18T21:36:36.490Z,1.90
2023-02-18T21:39:09.933Z,1.73
2023-02-18T21:41:40.763Z,2.40
2023-02-18T21:44:08.695Z,1.73
2023-02-18T21:46:37.448Z,2.00
2023-02-18T21:49:10.088Z,2.00
2023-02-18T21:52:00.439Z,1.70
2023-02-18T21:54:31.425Z,2.20
2023-02-18T21:57:00.493Z,2.00
2023-02-18T21:59:30.258Z,2.10
2023-02-18T22:02:00.276Z,2.00
2023-02-18T22:04:29.086Z,3.00
2023-02-18T22:06:56.653Z,1.93
2023-02-18T22:09:24.215Z,2.73
2023-02-18T22:11:53.167Z,2.33
2023-02-18T22:14:20.988Z,2.33
2023-02-18T22:16:48.734Z,2.37
2023-02-18T22:19:16.309Z,2.37
2023-02-18T22:21:45.051Z,3.23
2023-02-18T22:24:13.715Z,2.30
2023-02-18T22:26:43.883Z,2.30
2023-02-18T22:29:14.368Z,2.80
2023-02-18T22:31:42.146Z,2.43
2023-02-18T22:34:11.072Z,2.50
2023-02-18T22:36:38.727Z,2.50
2023-02-18T22:39:07.443Z,2.77
2023-02-18T22:41:35.312Z,2.90
2023-02-18T22:44:05.191Z,2.40
2023-02-18T22:46:36.345Z,2.47
2023-02-18T22:49:05.925Z,2.50
2023-02-18T22:51:37.646Z,2.60
2023-02-18T22:54:07.004Z,2.80
2023-02-18T22:56:35.068Z,2.70
2023-02-18T22:59:02.830Z,2.60
2023-02-18T23:01:31.812Z,2.60
2023-02-18T23:04:05.771Z,2.63
2023-02-18T23:06:33.522Z,2.90
2023-02-18T23:09:01.207Z,2.73
2023-02-18T23:11:29.138Z,3.43
2023-02-18T23:14:14.970Z,2.67
2023-02-18T23:17:00.760Z,2.73
2023-02-18T23:19:31.114Z,2.70
2023-02-18T23:21:59.519Z,2.90
2023-02-18T23:24:27.327Z,2.70
2023-02-18T23:26:54.939Z,2.73
2023-02-18T23:29:22.511Z,3.50
2023-02-18T23:31:50.111Z,3.23
2023-02-18T23:34:18.346Z,2.60
2023-02-18T23:36:47.870Z,2.90
2023-02-18T23:39:19.106Z,2.60
2023-02-18T23:41:47.150Z,2.93
2023-02-18T23:44:16.923Z,3.10
2023-02-18T23:46:45.508Z,3.10
2023-02-18T23:49:16.164Z,3.00
2023-02-18T23:51:44.382Z,3.27
2023-02-18T23:54:13.275Z,3.03
2023-02-18T23:56:41.510Z,3.30
2023-02-18T23:59:09.142Z,3.20
